Time;durP1;ratioP1;P1;durP2;ratioP2;P2;SDS_P1;SDS_P2;PMS_P1;PMS_P2;Temp;Humidity;BMP_temperature;BMP_pressure;BME280_temperature;BME280_humidity;BME280_pressure;Samples;Min_cycle;Max_cycle;Signal;HPM_P1;HPM_P2
2023/10/21 00:02:10;;;;;;;8.77;4.05;;;;;;;2.34;90.51;98941.00;5053932;28;20037;-60
2023/10/21 00:04:35;;;;;;;6.30;3.55;;;;;;;2.38;90.48;98952.69;5068828;28;20106;-59
2023/10/21 00:07:01;;;;;;;4.38;3.55;;;;;;;2.38;89.98;98955.28;5053891;28;20037;-58
2023/10/21 00:09:27;;;;;;;3.85;3.10;;;;;;;2.37;90.56;98954.50;5053351;28;20530;-59
2023/10/21 00:11:53;;;;;;;5.95;3.50;;;;;;;2.29;90.51;98959.88;5053801;28;20041;-59
2023/10/21 00:14:18;;;;;;;5.05;3.50;;;;;;;2.30;90.58;98973.78;5052048;28;20056;-60
2023/10/21 00:16:44;;;;;;;6.95;3.53;;;;;;;2.28;90.68;98956.47;5035645;28;20044;-60
2023/10/21 00:19:13;;;;;;;5.03;3.40;;;;;;;2.25;90.79;98966.50;5071197;28;20514;-60
2023/10/21 00:21:39;;;;;;;3.88;3.10;;;;;;;2.27;90.50;98973.16;5073495;28;20040;-59
2023/10/21 00:24:05;;;;;;;6.35;3.45;;;;;;;2.25;90.85;98967.31;5073190;28;20067;-60
2023/10/21 00:26:47;;;;;;;4.47;3.10;;;;;;;2.32;90.49;98975.19;5072640;28;20051;-59
2023/10/21 00:29:14;;;;;;;4.55;3.60;;;;;;;2.37;90.10;98987.69;5073344;28;20074;-60
2023/10/21 00:31:41;;;;;;;5.57;2.88;;;;;;;2.36;90.14;98989.50;5073284;28;20068;-58
2023/10/21 00:34:07;;;;;;;4.60;3.40;;;;;;;2.33;90.22;98979.44;5055079;28;20045;-59
2023/10/21 00:36:32;;;;;;;6.15;3.65;;;;;;;2.23;90.27;98982.38;5073071;28;20086;-59
2023/10/21 00:38:58;;;;;;;4.07;2.90;;;;;;;2.27;90.28;98988.84;5071590;28;20037;-60
2023/10/21 00:41:24;;;;;;;5.65;3.70;;;;;;;2.27;90.54;98981.00;5072797;28;20048;-59
2023/10/21 00:43:50;;;;;;;4.20;3.10;;;;;;;2.33;90.18;98999.56;5072709;28;20127;-59
2023/10/21 00:46:17;;;;;;;5.35;3.60;;;;;;;2.26;90.12;98997.72;5054831;28;20048;-59
2023/10/21 00:48:44;;;;;;;4.07;3.00;;;;;;;2.28;90.25;98987.03;5072814;28;20485;-59
2023/10/21 00:51:10;;;;;;;3.88;2.58;;;;;;;2.30;90.38;98997.31;5037297;28;20040;-59
2023/10/21 00:53:37;;;;;;;7.15;3.50;;;;;;;2.30;90.59;98995.50;5054681;28;20049;-59
2023/10/21 00:56:03;;;;;;;5.85;3.65;;;;;;;2.35;90.50;98990.47;5054749;28;20037;-59
2023/10/21 00:58:32;;;;;;;5.53;3.00;;;;;;;2.35;90.05;99005.38;5054373;28;20516;-60
2023/10/21 01:01:03;;;;;;;4.45;2.92;;;;;;;2.27;90.32;99007.16;5072463;28;20051;-59
2023/10/21 01:03:30;;;;;;;3.83;2.65;;;;;;;2.17;90.35;99001.47;5021404;28;20090;-60
2023/10/21 01:05:56;;;;;;;8.15;3.53;;;;;;;2.17;90.45;99011.91;5072505;28;20139;-60
2023/10/21 01:08:22;;;;;;;4.95;3.42;;;;;;;2.13;90.63;98991.59;5072078;28;20491;-60
2023/10/21 01:10:48;;;;;;;4.65;3.25;;;;;;;2.10;90.71;98986.75;5054621;28;20062;-60
2023/10/21 01:13:13;;;;;;;3.67;2.60;;;;;;;2.16;90.43;98993.81;5056637;28;20181;-58
2023/10/21 01:15:39;;;;;;;3.65;2.92;;;;;;;2.21;89.99;98997.47;5074054;28;20068;-60
2023/10/21 01:18:08;;;;;;;3.72;2.60;;;;;;;2.11;90.53;99006.66;5091812;28;20059;-59
2023/10/21 01:20:39;;;;;;;6.43;3.03;;;;;;;2.16;90.71;99018.16;5074052;28;20055;-60
2023/10/21 01:23:06;;;;;;;4.35;3.03;;;;;;;2.14;90.82;99014.13;5092043;28;20048;-60
2023/10/21 01:25:32;;;;;;;5.13;2.60;;;;;;;2.17;91.01;99027.59;5040245;28;20040;-59
2023/10/21 01:27:58;;;;;;;4.90;3.00;;;;;;;2.14;91.05;99025.38;5073767;28;20417;-58
2023/10/21 01:30:24;;;;;;;5.18;3.13;;;;;;;2.09;91.52;99019.94;5091981;28;20036;-60
2023/10/21 01:32:50;;;;;;;5.75;3.20;;;;;;;2.18;91.75;99018.78;5073242;28;20042;-60
2023/10/21 01:35:17;;;;;;;5.78;3.55;;;;;;;2.19;90.84;99025.63;5037243;28;20528;-59
2023/10/21 01:37:44;;;;;;;4.68;3.30;;;;;;;2.18;90.98;99024.00;5071695;28;20036;-59
2023/10/21 01:40:10;;;;;;;5.95;3.50;;;;;;;2.15;90.86;99010.53;5071601;28;20052;-59
2023/10/21 01:42:37;;;;;;;5.35;3.35;;;;;;;2.22;91.10;99022.63;5053649;28;20052;-60
2023/10/21 01:45:04;;;;;;;3.72;3.33;;;;;;;2.28;91.28;99015.81;5054032;28;20076;-60
2023/10/21 01:47:31;;;;;;;4.72;3.83;;;;;;;2.33;90.72;99036.97;5072009;28;20469;-58
2023/10/21 01:49:57;;;;;;;8.50;3.72;;;;;;;2.27;91.06;99020.25;5071649;28;20060;-61
2023/10/21 01:52:24;;;;;;;6.43;3.72;;;;;;;2.17;92.08;99024.19;5071920;28;20177;-59
2023/10/21 01:54:50;;;;;;;5.50;3.72;;;;;;;2.10;91.82;99036.41;5053779;28;20413;-59
2023/10/21 01:57:16;;;;;;;6.80;4.53;;;;;;;2.09;92.19;99035.63;5078087;28;20453;-59
2023/10/21 01:59:42;;;;;;;5.88;3.22;;;;;;;2.03;92.44;99041.63;5056400;28;20036;-59
2023/10/21 02:02:08;;;;;;;6.90;3.95;;;;;;;1.96;92.34;99045.97;5073537;28;20043;-61
2023/10/21 02:04:34;;;;;;;5.63;3.80;;;;;;;1.82;93.06;99050.28;5072961;28;20063;-60
2023/10/21 02:07:00;;;;;;;5.28;3.33;;;;;;;1.85;93.30;99047.28;5057042;28;20116;-59
2023/10/21 02:09:26;;;;;;;7.20;4.65;;;;;;;1.88;93.04;99035.66;5073760;28;20048;-58
2023/10/21 02:11:55;;;;;;;6.90;4.50;;;;;;;1.84;92.96;99035.22;5073510;28;20142;-59
2023/10/21 02:14:24;;;;;;;6.93;4.45;;;;;;;1.80;93.60;99042.63;5091517;28;20052;-60
2023/10/21 02:16:51;;;;;;;10.38;5.53;;;;;;;1.82;93.76;99050.28;5073558;28;20039;-59
2023/10/21 02:19:17;;;;;;;8.05;4.85;;;;;;;1.80;93.89;99071.38;5091233;28;20056;-59
2023/10/21 02:21:43;;;;;;;7.65;4.30;;;;;;;1.77;93.29;99057.91;5073734;28;20096;-59
2023/10/21 02:24:09;;;;;;;8.05;4.57;;;;;;;1.62;93.64;99057.97;5074169;28;20055;-58
2023/10/21 02:26:34;;;;;;;5.50;3.97;;;;;;;1.65;93.77;99059.38;5091176;28;20496;-58
2023/10/21 02:29:00;;;;;;;5.82;4.60;;;;;;;1.72;93.87;99060.25;5056568;28;20044;-59
2023/10/21 02:31:26;;;;;;;7.85;5.38;;;;;;;1.77;93.33;99069.16;5073423;28;20040;-59
2023/10/21 02:33:52;;;;;;;5.95;4.38;;;;;;;1.74;93.45;99060.88;5056498;28;20040;-59
2023/10/21 02:36:19;;;;;;;10.07;5.05;;;;;;;1.73;93.10;99088.00;5091714;28;20043;-59
2023/10/21 02:38:45;;;;;;;7.53;3.83;;;;;;;1.74;92.81;99073.94;5073494;28;20440;-59
2023/10/21 02:41:11;;;;;;;5.30;4.03;;;;;;;1.76;92.92;99083.19;5091384;28;20520;-59
2023/10/21 02:43:37;;;;;;;6.63;4.05;;;;;;;1.70;92.87;99083.16;5091098;28;20098;-59
2023/10/21 02:46:10;;;;;;;11.52;4.32;;;;;;;1.67;92.80;99083.53;5091393;28;20513;-59
2023/10/21 02:48:36;;;;;;;5.60;4.13;;;;;;;1.64;92.58;99074.25;5091344;28;20397;-60
2023/10/21 02:51:12;;;;;;;7.45;4.25;;;;;;;1.66;93.10;99074.06;5091737;28;20134;-58
2023/10/21 02:53:39;;;;;;;7.55;4.40;;;;;;;1.69;92.83;99074.50;5056812;28;20040;-60
2023/10/21 02:56:08;;;;;;;5.57;3.30;;;;;;;1.56;92.57;99095.28;5091142;28;20046;-60
2023/10/21 02:58:37;;;;;;;7.38;3.53;;;;;;;1.59;92.59;99085.28;5073222;28;20043;-59
2023/10/21 03:01:26;;;;;;;6.53;3.88;;;;;;;1.50;92.69;99093.41;5073232;28;20046;-58
2023/10/21 03:03:52;;;;;;;5.65;3.97;;;;;;;1.58;92.66;99098.50;5091233;28;20416;-60
2023/10/21 03:06:19;;;;;;;6.40;4.72;;;;;;;1.53;92.74;99099.09;5072958;28;20090;-59
2023/10/21 03:08:45;;;;;;;5.80;3.80;;;;;;;1.58;92.54;99078.41;5072707;28;20040;-59
2023/10/21 03:11:11;;;;;;;6.75;4.30;;;;;;;1.59;92.12;99085.28;5091253;28;20036;-59
2023/10/21 03:13:38;;;;;;;7.38;4.22;;;;;;;1.58;92.39;99086.25;5056102;28;20040;-59
2023/10/21 03:16:08;;;;;;;4.80;3.75;;;;;;;1.66;92.17;99101.00;5075897;28;20040;-59
2023/10/21 03:18:35;;;;;;;4.72;3.55;;;;;;;1.58;92.18;99101.13;5059782;28;20063;-59
2023/10/21 03:21:01;;;;;;;7.30;4.38;;;;;;;1.51;92.31;99108.91;5076750;28;20036;-57
2023/10/21 03:23:27;;;;;;;7.93;4.22;;;;;;;1.51;92.65;99101.06;5076468;28;20417;-60
2023/10/21 03:26:11;;;;;;;6.47;3.78;;;;;;;1.57;92.13;99115.19;5076353;28;20065;-59
2023/10/21 03:28:39;;;;;;;6.47;4.03;;;;;;;1.45;92.63;99111.44;5094623;28;20382;-59
2023/10/21 03:31:05;;;;;;;6.80;3.60;;;;;;;1.47;92.59;99125.94;5094823;28;20450;-58
2023/10/21 03:33:31;;;;;;;6.22;4.32;;;;;;;1.49;92.21;99110.06;5094371;28;20056;-58
2023/10/21 03:36:03;;;;;;;8.25;4.18;;;;;;;1.49;92.16;99110.88;5094467;28;20040;-59
2023/10/21 03:38:29;;;;;;;5.57;3.72;;;;;;;1.52;92.27;99109.69;5094221;28;20102;-60
2023/10/21 03:41:04;;;;;;;5.57;3.70;;;;;;;1.50;91.96;99117.75;5094271;28;20044;-59
2023/10/21 03:43:30;;;;;;;7.25;4.35;;;;;;;1.48;92.53;99119.72;5094216;28;20123;-59
2023/10/21 03:45:56;;;;;;;5.05;3.78;;;;;;;1.51;92.33;99136.84;5076145;28;20044;-60
2023/10/21 03:48:22;;;;;;;5.90;3.90;;;;;;;1.54;91.41;99132.03;5093891;28;20529;-60
2023/10/21 03:50:49;;;;;;;4.63;3.55;;;;;;;1.42;91.26;99132.72;5094132;28;20516;-57
2023/10/21 03:53:16;;;;;;;7.63;3.95;;;;;;;1.41;91.55;99131.88;5075850;28;20059;-60
2023/10/21 03:55:43;;;;;;;7.93;4.25;;;;;;;1.47;91.46;99133.78;5094211;28;20043;-60
2023/10/21 03:58:10;;;;;;;6.30;4.40;;;;;;;1.54;91.60;99149.53;5093915;28;20518;-60
2023/10/21 04:00:37;;;;;;;5.82;3.90;;;;;;;1.49;91.31;99157.91;5058324;28;20051;-60
2023/10/21 04:03:03;;;;;;;6.40;4.05;;;;;;;1.51;91.36;99144.66;5058901;28;20089;-59
2023/10/21 04:05:29;;;;;;;6.47;4.28;;;;;;;1.53;91.20;99164.41;5094053;28;20036;-60
2023/10/21 04:07:55;;;;;;;8.05;4.45;;;;;;;1.47;91.20;99159.91;5093668;28;20047;-60
2023/10/21 04:10:21;;;;;;;5.57;4.22;;;;;;;1.43;91.38;99168.28;5093774;28;20047;-60
2023/10/21 04:12:47;;;;;;;6.47;4.00;;;;;;;1.45;91.08;99158.47;5075753;28;20040;-59
2023/10/21 04:15:13;;;;;;;7.40;4.22;;;;;;;1.42;91.16;99170.09;5093695;28;20050;-59
2023/10/21 04:17:39;;;;;;;4.72;3.53;;;;;;;1.39;90.65;99174.88;5093035;28;20131;-60
2023/10/21 04:20:06;;;;;;;3.53;2.88;;;;;;;1.36;90.74;99197.75;5093760;28;20066;-60
2023/10/21 04:22:32;;;;;;;5.22;3.33;;;;;;;1.35;90.46;99183.06;5075636;28;20044;-59
2023/10/21 04:24:59;;;;;;;5.40;3.97;;;;;;;1.34;90.76;99185.84;5058528;28;20040;-59
2023/10/21 04:27:26;;;;;;;6.75;3.72;;;;;;;1.33;91.45;99186.84;5058266;28;20044;-59
2023/10/21 04:29:52;;;;;;;5.55;4.00;;;;;;;1.35;91.22;99190.91;5093382;28;20040;-59
2023/10/21 04:32:17;;;;;;;5.38;4.03;;;;;;;1.39;90.73;99190.53;5075291;28;20097;-59
2023/10/21 04:34:44;;;;;;;5.45;3.70;;;;;;;1.41;90.90;99201.59;5093384;28;20470;-60
2023/10/21 04:37:10;;;;;;;7.18;4.25;;;;;;;1.42;90.34;99195.41;5093493;28;20063;-59
2023/10/21 04:39:36;;;;;;;6.10;3.45;;;;;;;1.39;90.65;99195.78;5093373;28;20072;-60
2023/10/21 04:42:04;;;;;;;6.75;3.88;;;;;;;1.29;90.22;99196.84;5093343;28;20047;-59
2023/10/21 04:44:30;;;;;;;6.13;3.92;;;;;;;1.40;90.80;99202.59;5093211;28;20082;-60
2023/10/21 04:46:56;;;;;;;5.70;4.03;;;;;;;1.43;90.45;99203.03;5074813;28;20068;-61
2023/10/21 04:49:21;;;;;;;5.80;3.65;;;;;;;1.44;90.31;99207.28;5092961;28;20078;-60
2023/10/21 04:51:47;;;;;;;4.95;3.88;;;;;;;1.50;89.63;99209.16;5092937;28;20072;-62
2023/10/21 04:54:13;;;;;;;4.95;3.38;;;;;;;1.42;89.61;99211.88;5074524;28;20042;-57
2023/10/21 04:56:39;;;;;;;6.28;3.92;;;;;;;1.48;89.58;99210.34;5092641;28;20473;-60
2023/10/21 04:59:05;;;;;;;4.40;3.45;;;;;;;1.43;89.70;99207.47;5092302;28;20459;-58
2023/10/21 05:01:30;;;;;;;6.20;4.30;;;;;;;1.41;89.77;99225.09;5074229;28;20048;-59
2023/10/21 05:03:56;;;;;;;5.20;3.88;;;;;;;1.33;90.14;99205.13;5091593;28;20473;-60
2023/10/21 05:06:22;;;;;;;6.47;3.80;;;;;;;1.48;90.00;99216.38;5074320;28;20050;-60
2023/10/21 05:08:48;;;;;;;5.80;3.88;;;;;;;1.43;89.55;99221.31;5092171;28;20075;-60
2023/10/21 05:11:13;;;;;;;6.03;3.60;;;;;;;1.52;89.29;99225.44;5092166;28;20042;-60
2023/10/21 05:13:39;;;;;;;5.32;3.97;;;;;;;1.54;88.99;99226.09;5056895;28;20063;-59
2023/10/21 05:16:05;;;;;;;4.28;3.05;;;;;;;1.59;89.28;99228.97;5091981;28;20043;-59
2023/10/21 05:18:31;;;;;;;5.13;3.60;;;;;;;1.67;88.47;99227.22;5091817;28;20505;-60
2023/10/21 05:20:56;;;;;;;7.47;3.95;;;;;;;1.66;88.29;99243.91;5073845;28;20048;-60
2023/10/21 05:23:22;;;;;;;5.53;3.60;;;;;;;1.66;87.91;99244.72;5056764;28;20044;-60
2023/10/21 05:25:48;;;;;;;3.88;3.28;;;;;;;1.67;88.06;99246.31;5091022;28;20043;-59
2023/10/21 05:28:13;;;;;;;5.07;3.40;;;;;;;1.69;88.00;99256.59;5092301;28;20619;-58
2023/10/21 05:30:41;;;;;;;5.93;3.63;;;;;;;1.66;87.95;99249.94;5057391;28;20059;-58
2023/10/21 05:33:06;;;;;;;5.43;3.50;;;;;;;1.67;87.82;99255.97;5091814;28;20052;-59
2023/10/21 05:35:32;;;;;;;4.25;3.08;;;;;;;1.69;88.07;99249.56;5092093;28;20108;-59
2023/10/21 05:37:57;;;;;;;5.60;3.53;;;;;;;1.73;87.23;99260.47;5073171;28;20108;-60
2023/10/21 05:40:25;;;;;;;5.40;3.67;;;;;;;1.76;87.52;99265.31;5091902;28;20090;-60
2023/10/21 05:42:50;;;;;;;4.35;3.00;;;;;;;1.86;87.19;99258.03;5092126;28;20071;-59
2023/10/21 05:45:16;;;;;;;7.10;4.00;;;;;;;1.87;86.34;99267.47;5092107;28;20497;-59
2023/10/21 05:47:42;;;;;;;5.20;3.30;;;;;;;1.89;86.72;99277.75;5072849;28;20417;-60
2023/10/21 05:50:09;;;;;;;4.97;3.08;;;;;;;1.84;85.63;99273.06;5090547;28;20061;-57
2023/10/21 05:52:35;;;;;;;6.03;3.50;;;;;;;1.86;86.32;99281.53;5056947;28;20189;-56
2023/10/21 05:55:05;;;;;;;2.92;2.58;;;;;;;1.80;86.26;99285.69;5092035;28;20135;-58
2023/10/21 05:57:31;;;;;;;4.55;3.40;;;;;;;1.75;86.52;99271.56;5091890;28;20527;-58
2023/10/21 05:59:57;;;;;;;4.93;3.45;;;;;;;1.77;86.33;99296.50;5092577;28;20044;-59
2023/10/21 06:02:22;;;;;;;7.07;3.55;;;;;;;1.80;86.38;99288.31;5092047;28;20032;-59
2023/10/21 06:04:48;;;;;;;6.00;3.22;;;;;;;1.88;86.46;99281.34;5091552;28;20040;-60
2023/10/21 06:07:14;;;;;;;6.97;3.53;;;;;;;1.96;86.08;99286.47;5073402;28;20043;-56
2023/10/21 06:09:39;;;;;;;4.78;3.45;;;;;;;2.00;85.60;99293.78;5073438;28;20048;-58
2023/10/21 06:12:07;;;;;;;6.10;3.80;;;;;;;2.11;85.42;99289.03;5073990;28;20028;-57
2023/10/21 06:14:34;;;;;;;5.60;3.10;;;;;;;2.24;84.67;99304.91;5051925;28;20048;-56
2023/10/21 06:17:00;;;;;;;4.22;3.35;;;;;;;2.26;84.24;99303.72;5086343;28;20047;-60
2023/10/21 06:19:26;;;;;;;5.80;3.25;;;;;;;2.28;83.89;99303.50;5072458;28;20044;-54
2023/10/21 06:21:52;;;;;;;6.60;3.67;;;;;;;2.17;83.75;99314.44;5091260;28;20071;-58
2023/10/21 06:24:18;;;;;;;6.65;4.00;;;;;;;2.21;83.88;99297.41;5072932;28;20047;-55
2023/10/21 06:26:45;;;;;;;4.15;3.03;;;;;;;2.28;83.49;99293.84;5052908;28;20128;-58
2023/10/21 06:29:10;;;;;;;4.55;3.08;;;;;;;2.29;83.13;99294.66;5053105;28;20052;-58
2023/10/21 06:31:36;;;;;;;4.53;3.00;;;;;;;2.38;83.41;99296.19;5084078;28;20039;-60
2023/10/21 06:34:02;;;;;;;3.70;3.00;;;;;;;2.34;83.53;99300.16;5072661;28;20040;-58
2023/10/21 06:36:27;;;;;;;5.65;3.90;;;;;;;2.44;82.77;99302.44;5091351;28;20413;-60
2023/10/21 06:38:53;;;;;;;4.63;3.35;;;;;;;2.42;83.12;99312.31;5090583;28;20061;-59
2023/10/21 06:41:19;;;;;;;5.22;3.85;;;;;;;2.46;82.50;99309.13;5091143;28;20126;-59
2023/10/21 06:43:44;;;;;;;4.75;3.33;;;;;;;2.48;82.23;99304.53;5072919;28;20047;-61
2023/10/21 06:46:11;;;;;;;4.45;3.25;;;;;;;2.53;82.55;99311.81;5072261;28;20139;-59
2023/10/21 06:48:38;;;;;;;3.42;2.92;;;;;;;2.47;82.51;99323.00;5088374;28;20494;-58
2023/10/21 06:51:04;;;;;;;6.65;3.53;;;;;;;2.44;82.20;99324.22;5074233;28;20044;-58
2023/10/21 06:53:29;;;;;;;4.45;3.20;;;;;;;2.47;82.21;99320.41;5092774;28;20093;-57
2023/10/21 06:55:56;;;;;;;4.70;3.45;;;;;;;2.54;81.80;99325.72;5074796;28;20497;-60
2023/10/21 06:58:21;;;;;;;5.68;3.35;;;;;;;2.63;82.09;99330.63;5094112;28;20139;-59
2023/10/21 07:01:01;;;;;;;6.40;3.17;;;;;;;2.72;81.50;99339.16;5094388;28;20131;-57
2023/10/21 07:03:31;;;;;;;5.07;3.13;;;;;;;2.61;80.67;99329.19;5042063;28;20374;-60
2023/10/21 07:05:57;;;;;;;2.88;2.55;;;;;;;2.46;81.17;99353.59;5095087;28;20044;-58
2023/10/21 07:08:23;;;;;;;5.90;2.55;;;;;;;2.35;81.67;99351.47;5094721;28;20493;-60
2023/10/21 07:10:52;;;;;;;3.55;2.78;;;;;;;2.35;81.80;99341.00;5094656;28;20085;-58
2023/10/21 07:13:18;;;;;;;3.35;3.03;;;;;;;2.41;81.44;99335.06;5094434;28;20394;-59
2023/10/21 07:15:44;;;;;;;3.45;2.75;;;;;;;2.40;81.52;99340.47;5075071;28;20041;-60
2023/10/21 07:18:10;;;;;;;3.60;3.03;;;;;;;2.42;81.97;99336.66;5073901;28;20568;-61
2023/10/21 07:20:36;;;;;;;3.72;2.63;;;;;;;2.49;81.34;99361.06;5056681;28;20040;-60
2023/10/21 07:23:02;;;;;;;4.65;2.88;;;;;;;2.62;80.73;99349.16;5085377;28;20094;-59
2023/10/21 07:25:28;;;;;;;3.15;2.75;;;;;;;2.64;80.70;99360.22;5094396;28;20135;-60
2023/10/21 07:27:54;;;;;;;4.15;2.80;;;;;;;2.76;80.18;99369.19;5093374;28;20184;-62
2023/10/21 07:30:23;;;;;;;3.88;3.00;;;;;;;2.79;78.98;99355.72;5093663;28;20063;-61
2023/10/21 07:32:49;;;;;;;4.88;3.30;;;;;;;2.81;79.71;99358.16;5089197;28;20047;-59
2023/10/21 07:35:16;;;;;;;4.68;2.88;;;;;;;2.74;80.26;99360.75;5094307;28;20089;-59
2023/10/21 07:37:44;;;;;;;4.20;2.97;;;;;;;2.77;79.55;99373.44;5094167;28;20036;-61
2023/10/21 07:40:11;;;;;;;11.70;3.60;;;;;;;2.88;79.65;99372.94;5093598;28;20505;-59
2023/10/21 07:42:37;;;;;;;5.53;2.97;;;;;;;2.72;79.74;99381.84;5075649;28;20505;-59
2023/10/21 07:45:06;;;;;;;4.18;2.92;;;;;;;2.76;79.65;99392.75;5091726;28;20092;-62
2023/10/21 07:47:37;;;;;;;4.10;3.70;;;;;;;2.78;78.73;99387.34;5091239;28;20147;-59
2023/10/21 07:50:07;;;;;;;3.47;3.17;;;;;;;2.78;78.98;99392.56;5071493;28;20063;-60
2023/10/21 07:52:35;;;;;;;4.10;2.88;;;;;;;2.86;78.38;99387.22;5041008;28;20123;-59
2023/10/21 07:55:01;;;;;;;3.10;2.78;;;;;;;2.85;78.17;99391.63;5076061;28;20047;-60
2023/10/21 07:57:31;;;;;;;4.38;2.70;;;;;;;2.90;77.90;99385.84;5094463;28;20043;-60
2023/10/21 07:59:58;;;;;;;2.75;2.20;;;;;;;2.77;77.72;99388.34;5094024;28;20048;-59
2023/10/21 08:02:23;;;;;;;3.65;3.00;;;;;;;2.85;77.77;99389.00;5093262;28;20063;-59
2023/10/21 08:04:49;;;;;;;5.00;2.72;;;;;;;2.93;78.06;99380.22;5094040;28;20520;-60
2023/10/21 08:07:15;;;;;;;4.30;2.83;;;;;;;3.08;77.11;99391.44;5094067;28;20115;-61
2023/10/21 08:09:41;;;;;;;4.65;3.30;;;;;;;3.24;77.02;99393.00;5074424;28;20505;-61
2023/10/21 08:12:08;;;;;;;4.10;2.95;;;;;;;3.16;75.78;99391.31;5076467;28;20075;-61
2023/10/21 08:14:36;;;;;;;4.07;3.13;;;;;;;3.20;76.53;99386.50;5056807;28;20533;-60
2023/10/21 08:17:05;;;;;;;6.25;3.38;;;;;;;3.35;76.71;99402.13;5081665;28;20615;-60
2023/10/21 08:19:31;;;;;;;2.85;2.58;;;;;;;3.38;76.08;99399.13;5092670;28;20095;-62
2023/10/21 08:21:57;;;;;;;3.20;2.65;;;;;;;3.44;75.56;99415.91;5093223;28;20451;-59
2023/10/21 08:24:23;;;;;;;3.45;2.97;;;;;;;3.45;75.94;99414.91;5093366;28;20146;-60
2023/10/21 08:26:49;;;;;;;3.50;2.95;;;;;;;3.52;76.26;99421.00;5074578;28;20040;-61
2023/10/21 08:29:15;;;;;;;3.95;2.75;;;;;;;3.45;75.59;99430.66;5054205;28;20048;-62
2023/10/21 08:31:42;;;;;;;3.97;2.78;;;;;;;3.47;75.69;99416.34;5074832;28;20039;-63
2023/10/21 08:34:12;;;;;;;11.00;2.83;;;;;;;3.47;74.96;99434.69;5092549;28;20428;-63
2023/10/21 08:36:39;;;;;;;4.97;2.75;;;;;;;3.49;74.47;99427.44;5055162;28;20847;-63
2023/10/21 08:39:08;;;;;;;4.22;3.05;;;;;;;3.51;75.43;99432.50;5091177;28;20512;-61
2023/10/21 08:41:38;;;;;;;4.72;2.83;;;;;;;3.54;73.72;99446.03;5092031;28;20036;-61
2023/10/21 08:44:05;;;;;;;3.97;2.85;;;;;;;3.58;73.51;99438.59;5088676;28;20083;-60
2023/10/21 08:46:37;;;;;;;3.47;2.95;;;;;;;3.39;74.06;99448.75;5075040;28;20048;-58
2023/10/21 08:49:06;;;;;;;4.35;3.30;;;;;;;3.39;74.09;99434.84;5073690;28;20522;-60
2023/10/21 08:51:33;;;;;;;4.15;2.88;;;;;;;3.42;73.83;99445.75;5074811;28;20084;-60
2023/10/21 08:54:04;;;;;;;4.22;2.92;;;;;;;3.47;73.64;99445.19;5090821;28;20109;-59
2023/10/21 08:56:31;;;;;;;4.50;3.58;;;;;;;3.53;74.32;99448.81;5066966;28;20040;-59
2023/10/21 08:58:57;;;;;;;5.20;3.28;;;;;;;3.55;74.49;99454.69;5077498;28;20076;-62
2023/10/21 09:01:23;;;;;;;3.72;3.17;;;;;;;3.55;74.33;99466.00;5092016;28;20036;-58
2023/10/21 09:03:50;;;;;;;4.75;3.13;;;;;;;3.56;74.67;99461.56;5091321;28;20165;-60
2023/10/21 09:06:17;;;;;;;6.15;3.38;;;;;;;3.41;74.92;99457.22;5074301;28;20075;-58
2023/10/21 09:08:45;;;;;;;4.95;3.20;;;;;;;3.34;74.43;99461.59;5092533;28;20051;-57
2023/10/21 09:11:14;;;;;;;4.90;3.70;;;;;;;3.41;75.27;99465.09;5092567;28;20205;-56
2023/10/21 09:13:41;;;;;;;6.90;3.67;;;;;;;3.51;75.32;99467.38;5092069;28;20050;-58
2023/10/21 09:16:29;;;;;;;4.15;3.42;;;;;;;3.50;75.61;99457.06;5092362;28;20067;-60
2023/10/21 09:19:06;;;;;;;3.60;2.65;;;;;;;3.50;74.72;99468.38;5034310;28;20123;-59
2023/10/21 09:21:41;;;;;;;4.68;2.70;;;;;;;3.60;75.24;99457.56;5065746;28;20510;-60
2023/10/21 09:24:20;;;;;;;4.70;3.30;;;;;;;3.55;75.29;99462.56;5071835;28;20106;-59
2023/10/21 09:26:47;;;;;;;7.40;3.60;;;;;;;3.57;74.88;99468.44;5069670;28;20045;-60
2023/10/21 09:29:16;;;;;;;4.43;3.42;;;;;;;3.44;75.57;99476.19;5071713;28;20048;-60
2023/10/21 09:31:51;;;;;;;5.60;3.30;;;;;;;3.37;75.85;99470.88;5071916;28;20044;-56
2023/10/21 09:34:25;;;;;;;4.07;3.13;;;;;;;3.20;76.91;99478.19;5069765;28;20344;-61
2023/10/21 09:36:52;;;;;;;5.20;3.45;;;;;;;3.24;76.88;99465.53;5070281;28;20115;-56
2023/10/21 09:39:18;;;;;;;5.40;3.50;;;;;;;3.32;76.58;99488.97;5071666;28;20048;-58
2023/10/21 09:41:45;;;;;;;5.55;3.50;;;;;;;3.34;76.59;99479.94;5037381;28;20524;-59
2023/10/21 09:44:13;;;;;;;5.63;4.10;;;;;;;3.27;76.14;99484.31;5053551;28;20113;-61
2023/10/21 09:46:39;;;;;;;4.65;3.60;;;;;;;3.35;76.75;99494.66;5070041;28;20502;-61
2023/10/21 09:49:06;;;;;;;4.28;2.85;;;;;;;3.39;75.07;99487.25;5070475;28;20051;-61
2023/10/21 09:51:35;;;;;;;4.30;3.40;;;;;;;3.34;75.08;99493.03;5072035;28;20043;-61
2023/10/21 09:54:06;;;;;;;4.22;3.28;;;;;;;3.40;75.76;99484.41;5069441;28;20086;-59
2023/10/21 09:56:33;;;;;;;4.90;3.50;;;;;;;3.57;74.57;99494.66;5070023;28;20040;-60
2023/10/21 09:58:59;;;;;;;5.57;3.75;;;;;;;3.60;75.06;99494.25;5070983;28;20152;-59
2023/10/21 10:01:26;;;;;;;4.45;3.40;;;;;;;3.54;74.63;99501.06;5070960;28;20036;-59
2023/10/21 10:03:52;;;;;;;4.93;3.50;;;;;;;3.74;75.22;99503.06;5069363;28;20078;-60
2023/10/21 10:06:21;;;;;;;5.53;3.97;;;;;;;3.81;72.97;99509.16;5069698;28;20051;-57
2023/10/21 10:08:47;;;;;;;5.30;4.20;;;;;;;3.87;73.33;99505.75;5069595;28;20079;-62
2023/10/21 10:11:15;;;;;;;8.43;3.88;;;;;;;3.91;73.54;99504.38;5071335;28;20348;-61
2023/10/21 10:13:48;;;;;;;7.20;4.80;;;;;;;4.05;72.80;99500.84;5070193;28;20045;-61
2023/10/21 10:16:27;;;;;;;4.60;3.47;;;;;;;4.04;72.17;99504.47;5053328;28;20391;-55
2023/10/21 10:18:55;;;;;;;5.82;3.80;;;;;;;4.02;72.68;99495.16;5017873;28;20059;-62
2023/10/21 10:21:22;;;;;;;5.13;4.00;;;;;;;4.00;73.16;99495.38;5044141;28;20498;-60
2023/10/21 10:23:51;;;;;;;8.40;4.25;;;;;;;4.14;73.15;99493.63;5043547;28;20040;-61
2023/10/21 10:26:37;;;;;;;4.53;3.60;;;;;;;4.19;71.81;99496.50;5063181;28;20069;-63
2023/10/21 10:29:25;;;;;;;5.55;4.20;;;;;;;4.13;72.54;99483.34;5064006;28;20299;-59
2023/10/21 10:32:14;;;;;;;5.82;4.07;;;;;;;4.13;71.98;99502.50;5047769;28;20127;-60
2023/10/21 10:34:53;;;;;;;8.95;4.47;;;;;;;4.05;71.55;99502.66;5040362;28;20055;-60
2023/10/21 10:37:35;;;;;;;5.00;3.80;;;;;;;4.10;70.59;99482.72;5042528;28;20414;-60
2023/10/21 10:40:16;;;;;;;7.25;4.15;;;;;;;4.10;71.86;99487.16;5048221;28;20052;-60
2023/10/21 10:42:43;;;;;;;6.88;3.92;;;;;;;4.16;71.42;99493.44;5064943;28;20049;-59
2023/10/21 10:45:09;;;;;;;4.95;4.45;;;;;;;4.11;71.84;99499.25;5049811;28;20048;-61
2023/10/21 10:47:40;;;;;;;8.52;4.30;;;;;;;4.09;71.79;99515.22;5050304;28;20045;-59
2023/10/21 10:50:16;;;;;;;;;;;;;;;4.13;71.36;99517.44;5030992;28;20048;-61
2023/10/21 10:52:41;;;;;;;7.20;3.83;;;;;;;4.23;71.59;99505.59;5048434;28;20436;-60
2023/10/21 10:55:11;;;;;;;7.03;4.65;;;;;;;4.33;70.37;99513.94;5048389;28;20041;-60
2023/10/21 10:57:37;;;;;;;5.20;4.03;;;;;;;4.38;70.95;99515.16;5050367;28;20045;-61
2023/10/21 11:00:10;;;;;;;4.65;4.03;;;;;;;4.43;70.77;99515.41;5050483;28;20045;-64
2023/10/21 11:02:42;;;;;;;7.30;4.00;;;;;;;4.47;70.77;99517.44;5050468;28;20041;-63
2023/10/21 11:05:09;;;;;;;4.95;4.28;;;;;;;4.48;70.21;99524.31;5049236;28;20099;-64
2023/10/21 11:07:35;;;;;;;6.85;4.43;;;;;;;4.46;70.69;99525.50;5050239;28;20041;-63
2023/10/21 11:10:02;;;;;;;6.90;4.15;;;;;;;4.54;70.07;99526.16;5049014;28;20048;-63
2023/10/21 11:12:30;;;;;;;5.53;4.32;;;;;;;4.62;69.84;99525.19;5049432;28;20128;-63
2023/10/21 11:14:57;;;;;;;4.80;3.60;;;;;;;4.68;70.30;99545.41;5048956;28;20182;-61
2023/10/21 11:17:22;;;;;;;5.40;3.78;;;;;;;4.73;69.85;99542.19;5050078;28;20037;-62
2023/10/21 11:19:48;;;;;;;5.25;3.78;;;;;;;4.65;68.98;99537.94;5067566;28;20124;-62
2023/10/21 11:22:26;;;;;;;4.80;3.83;;;;;;;4.71;69.72;99533.72;5070053;28;20048;-64
2023/10/21 11:24:53;;;;;;;5.28;4.00;;;;;;;4.87;69.74;99541.25;5068212;28;20403;-63
2023/10/21 11:27:18;;;;;;;4.63;4.05;;;;;;;4.87;69.17;99549.13;5069683;28;20037;-62
2023/10/21 11:29:45;;;;;;;4.75;3.65;;;;;;;4.90;69.26;99548.72;5069604;28;20040;-62
2023/10/21 11:32:13;;;;;;;4.10;3.45;;;;;;;4.96;69.38;99541.88;5069778;28;20040;-60
2023/10/21 11:34:43;;;;;;;4.70;3.95;;;;;;;5.09;69.58;99547.19;5069109;28;20071;-61
2023/10/21 11:37:10;;;;;;;4.63;3.22;;;;;;;5.08;66.44;99542.94;5069773;28;20041;-57
2023/10/21 11:39:39;;;;;;;4.97;3.42;;;;;;;5.05;66.84;99548.56;5055011;28;20037;-59
2023/10/21 11:42:17;;;;;;;3.88;3.42;;;;;;;4.84;66.08;99554.75;5073358;28;20128;-59
2023/10/21 11:45:13;;;;;;;4.72;3.50;;;;;;;4.85;67.18;99556.38;5071938;28;20048;-58